Time;durP1;ratioP1;P1;durP2;ratioP2;P2;SDS_P1;SDS_P2;PMS_P1;PMS_P2;Temp;Humidity;BMP_temperature;BMP_pressure;BME280_temperature;BME280_humidity;BME280_pressure;Samples;Min_cycle;Max_cycle;Signal;HPM_P1;HPM_P2
2022/04/04 00:00:21;;;;;;;7.40;6.30;;;;;;;;;;4940018;28;20949;-50
2022/04/04 00:02:47;;;;;;;9.33;5.93;;;;;;;;;;4937793;28;20758;-51
2022/04/04 00:05:12;;;;;;;8.43;5.40;;;;;;;;;;4939014;28;20447;-50
2022/04/04 00:07:39;;;;;;;9.17;6.87;;;;;;;;;;4939972;28;20896;-50
2022/04/04 00:10:05;;;;;;;8.00;5.90;;;;;;;;;;4942287;28;20443;-50
2022/04/04 00:12:31;;;;;;;8.23;6.50;;;;;;;;;;4937782;28;20446;-51
2022/04/04 00:14:57;;;;;;;11.70;6.40;;;;;;;;;;4940283;28;20435;-50
2022/04/04 00:17:23;;;;;;;7.63;6.80;;;;;;;;;;4940711;28;21017;-52
2022/04/04 00:19:49;;;;;;;8.20;6.07;;;;;;;;;;4946117;28;20481;-50
2022/04/04 00:22:15;;;;;;;13.03;7.20;;;;;;;;;;4939891;28;20505;-50
2022/04/04 00:24:41;;;;;;;8.73;6.10;;;;;;;;;;4940281;28;20869;-50
2022/04/04 00:27:07;;;;;;;7.77;6.17;;;;;;;;;;4941193;28;20593;-50
2022/04/04 00:29:33;;;;;;;6.80;5.27;;;;;;;;;;4939388;28;20522;-50
2022/04/04 00:31:59;;;;;;;7.80;5.40;;;;;;;;;;4937391;28;20458;-51
2022/04/04 00:34:24;;;;;;;10.60;6.07;;;;;;;;;;4945170;28;20436;-50
2022/04/04 00:36:50;;;;;;;6.53;5.20;;;;;;;;;;4938899;28;20443;-49
2022/04/04 00:39:19;;;;;;;8.40;7.07;;;;;;;;;;4941083;28;20748;-50
2022/04/04 00:41:45;;;;;;;6.50;5.23;;;;;;;;;;4939656;28;20755;-50
2022/04/04 00:44:11;;;;;;;5.77;5.10;;;;;;;;;;4940838;28;20466;-50
2022/04/04 00:46:39;;;;;;;16.73;5.53;;;;;;;;;;4942159;28;20960;-50
2022/04/04 00:49:05;;;;;;;6.10;5.00;;;;;;;;;;4941150;28;20454;-50
2022/04/04 00:51:31;;;;;;;7.53;5.03;;;;;;;;;;4937359;28;20447;-50
2022/04/04 00:53:57;;;;;;;9.63;6.07;;;;;;;;;;4945260;28;20446;-49
2022/04/04 00:56:25;;;;;;;6.67;5.60;;;;;;;;;;4943527;28;20449;-49
2022/04/04 00:58:51;;;;;;;8.07;5.80;;;;;;;;;;4942588;28;20443;-50
2022/04/04 01:01:17;;;;;;;9.33;5.47;;;;;;;;;;4938585;28;20446;-50
2022/04/04 01:03:43;;;;;;;7.40;4.93;;;;;;;;;;4941404;28;20435;-49
2022/04/04 01:06:09;;;;;;;7.63;4.40;;;;;;;;;;4943397;28;20785;-50
2022/04/04 01:08:35;;;;;;;10.07;5.10;;;;;;;;;;4940649;28;20546;-50
2022/04/04 01:11:01;;;;;;;6.57;4.97;;;;;;;;;;4939793;28;20447;-49
2022/04/04 01:13:27;;;;;;;7.57;5.47;;;;;;;;;;4939563;28;21278;-50
2022/04/04 01:15:53;;;;;;;7.60;5.60;;;;;;;;;;4942078;28;20443;-50
2022/04/04 01:18:20;;;;;;;8.87;5.50;;;;;;;;;;4940653;28;20443;-50
2022/04/04 01:20:46;;;;;;;8.40;5.50;;;;;;;;;;4939822;28;21380;-49
2022/04/04 01:23:13;;;;;;;5.50;4.70;;;;;;;;;;4939196;28;20475;-50
2022/04/04 01:25:39;;;;;;;7.53;5.37;;;;;;;;;;4937646;28;20449;-50
2022/04/04 01:28:05;;;;;;;8.70;6.33;;;;;;;;;;4941916;28;20486;-49
2022/04/04 01:30:31;;;;;;;6.73;4.27;;;;;;;;;;4941646;28;21008;-50
2022/04/04 01:32:57;;;;;;;5.67;3.97;;;;;;;;;;4941454;28;20451;-50
2022/04/04 01:35:23;;;;;;;8.03;4.80;;;;;;;;;;4938572;28;20439;-49
2022/04/04 01:37:49;;;;;;;6.37;4.53;;;;;;;;;;4943619;28;20442;-49
2022/04/04 01:40:16;;;;;;;5.70;3.43;;;;;;;;;;4938187;28;20469;-50
2022/04/04 01:42:42;;;;;;;8.20;6.03;;;;;;;;;;4943514;28;20439;-50
2022/04/04 01:45:09;;;;;;;7.30;4.80;;;;;;;;;;4941906;28;20451;-50
2022/04/04 01:47:36;;;;;;;4.20;3.60;;;;;;;;;;4943250;28;20478;-50
2022/04/04 01:50:02;;;;;;;8.20;4.10;;;;;;;;;;4943512;28;20469;-50
2022/04/04 01:52:29;;;;;;;5.10;3.83;;;;;;;;;;4943977;28;21017;-49
2022/04/04 01:54:55;;;;;;;11.40;3.90;;;;;;;;;;4942428;28;20439;-50
2022/04/04 01:57:21;;;;;;;5.57;4.90;;;;;;;;;;4941653;28;20483;-51
2022/04/04 01:59:47;;;;;;;4.10;3.70;;;;;;;;;;4941726;28;20439;-50
2022/04/04 02:02:13;;;;;;;8.13;4.80;;;;;;;;;;4937810;28;20446;-50
2022/04/04 02:04:39;;;;;;;7.00;3.80;;;;;;;;;;4938700;28;20435;-50
2022/04/04 02:07:08;;;;;;;5.20;4.33;;;;;;;;;;4945063;28;20478;-50
2022/04/04 02:09:34;;;;;;;7.23;5.33;;;;;;;;;;4939655;28;21016;-50
2022/04/04 02:12:01;;;;;;;4.77;4.30;;;;;;;;;;4945999;28;20457;-50
2022/04/04 02:14:26;;;;;;;7.97;4.77;;;;;;;;;;4946479;28;21346;-50
2022/04/04 02:16:52;;;;;;;6.33;4.17;;;;;;;;;;4940436;28;20440;-50
2022/04/04 02:19:18;;;;;;;4.63;3.50;;;;;;;;;;4943574;28;20457;-50
2022/04/04 02:21:45;;;;;;;6.27;4.30;;;;;;;;;;4941853;28;20438;-50
2022/04/04 02:24:11;;;;;;;6.20;4.53;;;;;;;;;;4948003;28;20517;-50
2022/04/04 02:26:37;;;;;;;6.07;4.23;;;;;;;;;;4943627;28;21114;-50
2022/04/04 02:29:04;;;;;;;7.17;4.93;;;;;;;;;;4946964;28;20480;-49
2022/04/04 02:31:29;;;;;;;6.13;4.00;;;;;;;;;;4941229;28;20454;-49
2022/04/04 02:33:56;;;;;;;5.10;3.90;;;;;;;;;;4942652;28;20422;-49
2022/04/04 02:36:22;;;;;;;12.50;4.30;;;;;;;;;;4942064;28;20443;-56
2022/04/04 02:38:48;;;;;;;5.97;4.17;;;;;;;;;;4943319;28;20439;-50
2022/04/04 02:41:14;;;;;;;4.90;3.50;;;;;;;;;;4938423;28;20983;-50
2022/04/04 02:43:40;;;;;;;9.13;4.13;;;;;;;;;;4937108;28;20431;-48
2022/04/04 02:46:08;;;;;;;6.57;4.77;;;;;;;;;;4939158;28;20450;-49
2022/04/04 02:48:35;;;;;;;5.20;4.70;;;;;;;;;;4941599;28;20482;-50
2022/04/04 02:51:01;;;;;;;6.23;4.10;;;;;;;;;;4941353;28;20467;-49
2022/04/04 02:53:27;;;;;;;7.13;3.50;;;;;;;;;;4945767;28;20479;-49
2022/04/04 02:58:45;;;;;;;5.00;3.50;;;;;;;;;;4953387;28;20454;-50
2022/04/04 03:01:11;;;;;;;4.23;3.50;;;;;;;;;;4945032;28;20483;-50
2022/04/04 03:03:38;;;;;;;7.50;3.80;;;;;;;;;;4947760;28;20474;-50
2022/04/04 03:06:04;;;;;;;6.57;4.27;;;;;;;;;;4945315;28;20503;-50
2022/04/04 03:08:30;;;;;;;3.93;3.57;;;;;;;;;;4945903;28;20859;-52
2022/04/04 03:10:56;;;;;;;5.30;4.80;;;;;;;;;;4949825;28;20435;-49
2022/04/04 03:13:22;;;;;;;6.00;4.40;;;;;;;;;;4951272;28;20448;-51
2022/04/04 03:15:48;;;;;;;4.90;3.37;;;;;;;;;;4946629;28;20451;-50
2022/04/04 03:18:14;;;;;;;6.70;3.80;;;;;;;;;;4945977;28;20442;-50
2022/04/04 03:20:40;;;;;;;6.30;4.47;;;;;;;;;;4958026;28;20511;-50
2022/04/04 03:23:06;;;;;;;4.70;3.60;;;;;;;;;;4947462;28;20451;-50
2022/04/04 03:25:32;;;;;;;4.07;3.77;;;;;;;;;;4944705;28;20442;-51
2022/04/04 03:27:58;;;;;;;4.43;3.67;;;;;;;;;;4947777;28;20491;-50
2022/04/04 03:30:25;;;;;;;4.20;3.30;;;;;;;;;;4943331;28;20499;-50
2022/04/04 03:32:52;;;;;;;3.43;3.03;;;;;;;;;;4941563;28;20439;-50
2022/04/04 03:35:18;;;;;;;7.03;3.57;;;;;;;;;;4945123;28;20434;-50
2022/04/04 03:37:45;;;;;;;3.43;3.13;;;;;;;;;;4943466;28;20754;-51
2022/04/04 03:40:13;;;;;;;3.77;3.10;;;;;;;;;;4936627;28;20444;-51
2022/04/04 03:42:40;;;;;;;5.60;3.00;;;;;;;;;;4936732;28;20435;-50
2022/04/04 03:45:06;;;;;;;4.57;2.90;;;;;;;;;;4944233;28;21004;-51
2022/04/04 03:47:32;;;;;;;4.37;3.97;;;;;;;;;;4938877;28;20497;-50
2022/04/04 03:49:59;;;;;;;4.30;3.00;;;;;;;;;;4944113;28;20451;-51
2022/04/04 03:52:25;;;;;;;5.40;3.53;;;;;;;;;;4939086;28;20450;-50
2022/04/04 03:54:51;;;;;;;4.40;3.20;;;;;;;;;;4944983;28;20442;-50
2022/04/04 03:57:17;;;;;;;4.47;4.07;;;;;;;;;;4937966;28;20432;-50
2022/04/04 03:59:43;;;;;;;3.80;2.90;;;;;;;;;;4942639;28;20792;-50
2022/04/04 04:02:11;;;;;;;8.13;4.07;;;;;;;;;;4940671;28;21165;-50
2022/04/04 04:04:37;;;;;;;6.10;3.63;;;;;;;;;;4946184;28;20443;-49
2022/04/04 04:07:03;;;;;;;3.67;3.13;;;;;;;;;;4946577;28;20490;-49
2022/04/04 04:09:29;;;;;;;4.70;4.20;;;;;;;;;;4943182;28;20522;-48
2022/04/04 04:11:56;;;;;;;6.67;3.63;;;;;;;;;;4943014;28;20451;-48
2022/04/04 04:14:22;;;;;;;3.77;3.30;;;;;;;;;;4944858;28;20553;-49
2022/04/04 04:16:48;;;;;;;6.57;3.67;;;;;;;;;;4942266;28;20530;-48
2022/04/04 04:21:58;;;;;;;8.00;4.53;;;;;;;;;;4940895;28;20458;-50
2022/04/04 04:24:26;;;;;;;3.80;3.47;;;;;;;;;;4942240;28;20436;-50
2022/04/04 04:26:52;;;;;;;6.70;4.13;;;;;;;;;;4940574;28;20490;-49
2022/04/04 04:29:18;;;;;;;8.43;4.00;;;;;;;;;;4942477;28;20830;-50
2022/04/04 04:31:44;;;;;;;6.03;3.40;;;;;;;;;;4941691;28;21377;-49
2022/04/04 04:34:10;;;;;;;3.30;3.00;;;;;;;;;;4933993;28;20440;-50
2022/04/04 04:36:39;;;;;;;3.70;2.80;;;;;;;;;;4938618;28;20443;-50
2022/04/04 04:39:08;;;;;;;3.50;2.03;;;;;;;;;;4930398;28;20944;-51
2022/04/04 04:41:34;;;;;;;6.07;3.13;;;;;;;;;;4935581;28;20445;-50
2022/04/04 04:44:03;;;;;;;6.03;3.53;;;;;;;;;;4935835;28;20431;-50
2022/04/04 04:46:29;;;;;;;3.40;2.90;;;;;;;;;;4939781;28;20442;-50
2022/04/04 04:48:56;;;;;;;4.17;3.13;;;;;;;;;;4925922;28;20562;-50
2022/04/04 04:51:21;;;;;;;5.37;3.10;;;;;;;;;;4934423;28;20816;-50
2022/04/04 04:53:47;;;;;;;5.50;3.27;;;;;;;;;;4942201;28;20447;-51
2022/04/04 04:56:14;;;;;;;5.53;3.17;;;;;;;;;;4934635;28;20838;-50
2022/04/04 04:58:40;;;;;;;4.10;3.10;;;;;;;;;;4938613;28;20690;-50
2022/04/04 05:01:06;;;;;;;4.30;3.40;;;;;;;;;;4932801;28;20458;-50
2022/04/04 05:03:34;;;;;;;5.40;3.23;;;;;;;;;;4928940;28;20470;-50
2022/04/04 05:06:00;;;;;;;4.37;2.77;;;;;;;;;;4932575;28;20423;-50
2022/04/04 05:08:26;;;;;;;5.47;3.77;;;;;;;;;;4938467;28;20549;-50
2022/04/04 05:10:52;;;;;;;5.83;3.50;;;;;;;;;;4926896;28;20436;-50
2022/04/04 05:13:19;;;;;;;4.33;3.93;;;;;;;;;;4929542;28;20501;-50
2022/04/04 05:15:45;;;;;;;6.30;3.37;;;;;;;;;;4938814;28;20471;-50
2022/04/04 05:18:11;;;;;;;10.20;4.03;;;;;;;;;;4940700;28;20427;-50
2022/04/04 05:20:37;;;;;;;4.20;2.90;;;;;;;;;;4938240;28;21018;-51
2022/04/04 05:23:03;;;;;;;3.80;2.80;;;;;;;;;;4937828;28;20502;-50
2022/04/04 05:25:29;;;;;;;4.00;3.20;;;;;;;;;;4938606;28;20524;-50
2022/04/04 05:27:58;;;;;;;4.97;4.13;;;;;;;;;;4939486;28;20471;-50
2022/04/04 05:30:25;;;;;;;9.30;3.30;;;;;;;;;;4942521;28;20430;-51
2022/04/04 05:32:53;;;;;;;4.60;3.63;;;;;;;;;;4934285;28;20534;-51
2022/04/04 05:35:20;;;;;;;16.90;4.80;;;;;;;;;;4936654;28;20456;-50
2022/04/04 05:37:46;;;;;;;5.30;4.67;;;;;;;;;;4936729;28;20501;-51
2022/04/04 05:40:12;;;;;;;7.37;3.60;;;;;;;;;;4934804;28;20471;-51
2022/04/04 05:42:39;;;;;;;4.10;3.43;;;;;;;;;;4940297;28;20470;-50
2022/04/04 05:45:07;;;;;;;4.17;3.80;;;;;;;;;;4945335;28;20478;-50
2022/04/04 05:47:34;;;;;;;4.97;3.67;;;;;;;;;;4936087;28;20482;-50
2022/04/04 05:50:00;;;;;;;5.87;3.97;;;;;;;;;;4933304;28;20436;-50
2022/04/04 05:52:26;;;;;;;6.00;4.50;;;;;;;;;;4939686;28;20571;-50
2022/04/04 05:54:57;;;;;;;4.60;3.10;;;;;;;;;;4946694;28;20441;-53
2022/04/04 05:57:24;;;;;;;5.60;4.97;;;;;;;;;;4942426;28;20438;-51
2022/04/04 05:59:50;;;;;;;6.90;4.67;;;;;;;;;;4945545;28;20446;-50
2022/04/04 06:02:16;;;;;;;6.33;3.63;;;;;;;;;;4942230;28;20505;-54
2022/04/04 06:04:42;;;;;;;4.53;4.10;;;;;;;;;;4947071;28;20534;-50
2022/04/04 06:07:08;;;;;;;6.73;4.37;;;;;;;;;;4950063;28;20533;-50
2022/04/04 06:09:34;;;;;;;5.53;3.90;;;;;;;;;;4947499;28;20534;-50
2022/04/04 06:12:00;;;;;;;6.37;5.80;;;;;;;;;;4946123;28;20498;-49
2022/04/04 06:14:26;;;;;;;6.33;5.37;;;;;;;;;;4947627;28;21224;-50
2022/04/04 06:16:52;;;;;;;3.97;3.50;;;;;;;;;;4946945;28;20446;-50
2022/04/04 06:19:18;;;;;;;5.60;4.97;;;;;;;;;;4938708;28;21350;-50
2022/04/04 06:21:44;;;;;;;4.63;2.77;;;;;;;;;;4943527;28;20905;-49
2022/04/04 06:24:10;;;;;;;9.73;4.17;;;;;;;;;;4946459;28;21033;-49
2022/04/04 06:26:36;;;;;;;5.10;4.60;;;;;;;;;;4945109;28;20515;-49
2022/04/04 06:29:02;;;;;;;5.93;3.97;;;;;;;;;;4978967;28;20442;-49
2022/04/04 06:31:28;;;;;;;4.90;3.83;;;;;;;;;;4937915;28;20443;-47
2022/04/04 06:33:54;;;;;;;15.63;5.03;;;;;;;;;;4944809;28;20473;-48
2022/04/04 06:36:23;;;;;;;5.63;4.20;;;;;;;;;;4947565;28;20541;-49
2022/04/04 06:38:50;;;;;;;7.43;3.63;;;;;;;;;;4935048;28;21040;-49
2022/04/04 06:41:16;;;;;;;14.13;3.90;;;;;;;;;;4926693;28;20462;-50
2022/04/04 06:43:43;;;;;;;4.77;4.07;;;;;;;;;;4925074;28;20513;-48
2022/04/04 06:46:13;;;;;;;4.43;3.50;;;;;;;;;;4934201;28;20848;-49
2022/04/04 06:48:39;;;;;;;4.20;3.60;;;;;;;;;;4938137;28;20797;-49
2022/04/04 06:51:06;;;;;;;5.73;4.50;;;;;;;;;;4942977;28;20769;-49
2022/04/04 06:53:55;;;;;;;4.60;3.87;;;;;;;;;;4939317;28;20443;-51
2022/04/04 06:56:29;;;;;;;7.70;3.80;;;;;;;;;;4943022;28;20455;-49
2022/04/04 06:58:55;;;;;;;6.63;4.10;;;;;;;;;;4944394;28;20445;-49
2022/04/04 07:01:21;;;;;;;10.63;4.60;;;;;;;;;;4941960;28;20792;-49
2022/04/04 07:03:47;;;;;;;4.47;3.67;;;;;;;;;;4935992;28;20450;-50
2022/04/04 07:06:17;;;;;;;4.43;3.57;;;;;;;;;;4938261;28;21220;-50
2022/04/04 07:08:44;;;;;;;5.63;3.93;;;;;;;;;;4955478;28;21122;-51
2022/04/04 07:11:13;;;;;;;4.80;3.80;;;;;;;;;;4931461;28;20537;-50
2022/04/04 07:13:39;;;;;;;5.60;4.80;;;;;;;;;;4940560;28;20451;-49
2022/04/04 07:16:05;;;;;;;4.30;3.87;;;;;;;;;;4933522;28;21707;-50
2022/04/04 07:18:32;;;;;;;5.87;3.77;;;;;;;;;;4947277;28;20466;-49
2022/04/04 07:20:58;;;;;;;6.70;4.90;;;;;;;;;;4943793;28;20613;-50
2022/04/04 07:23:24;;;;;;;8.17;5.10;;;;;;;;;;4943131;28;21016;-50
2022/04/04 07:25:50;;;;;;;8.77;4.60;;;;;;;;;;4969447;28;20438;-50
2022/04/04 07:28:16;;;;;;;6.20;3.60;;;;;;;;;;4942665;28;20471;-49
2022/04/04 07:30:43;;;;;;;12.80;5.23;;;;;;;;;;4943584;28;20476;-49
2022/04/04 07:33:09;;;;;;;17.90;4.23;;;;;;;;;;4943970;28;20526;-50
2022/04/04 07:35:35;;;;;;;5.33;4.10;;;;;;;;;;4937473;28;20444;-54
2022/04/04 07:38:01;;;;;;;5.33;4.73;;;;;;;;;;4935583;28;20454;-49
2022/04/04 07:40:28;;;;;;;5.87;3.67;;;;;;;;;;4942854;28;20459;-50
2022/04/04 07:42:54;;;;;;;6.83;3.37;;;;;;;;;;4944816;28;20517;-49
2022/04/04 07:45:20;;;;;;;4.60;3.90;;;;;;;;;;4942564;28;20427;-50
2022/04/04 07:47:46;;;;;;;7.50;4.70;;;;;;;;;;4945348;28;20581;-50
2022/04/04 07:50:13;;;;;;;7.07;5.17;;;;;;;;;;4946581;28;20468;-50
2022/04/04 07:52:40;;;;;;;7.17;5.03;;;;;;;;;;4944569;28;20447;-50
2022/04/04 07:55:07;;;;;;;4.60;3.87;;;;;;;;;;4945717;28;21011;-50
2022/04/04 07:57:32;;;;;;;8.37;4.60;;;;;;;;;;4951283;28;20455;-50
2022/04/04 07:59:58;;;;;;;5.80;4.97;;;;;;;;;;4949336;28;20443;-50
2022/04/04 08:02:24;;;;;;;4.00;3.60;;;;;;;;;;4942068;28;20439;-50
2022/04/04 08:04:50;;;;;;;6.47;4.40;;;;;;;;;;4945198;28;20450;-50
2022/04/04 08:07:19;;;;;;;6.70;4.40;;;;;;;;;;4944507;28;20519;-49
2022/04/04 08:09:46;;;;;;;9.00;4.67;;;;;;;;;;4941375;28;20443;-50
2022/04/04 08:12:12;;;;;;;5.23;4.73;;;;;;;;;;4946911;28;20449;-50
2022/04/04 08:14:38;;;;;;;5.07;4.57;;;;;;;;;;4947420;28;20439;-50
2022/04/04 08:17:04;;;;;;;6.67;4.73;;;;;;;;;;4938722;28;20443;-49
2022/04/04 08:19:30;;;;;;;5.93;4.70;;;;;;;;;;4948011;28;20454;-50
2022/04/04 08:21:57;;;;;;;9.47;5.73;;;;;;;;;;4939408;28;20427;-48
2022/04/04 08:24:23;;;;;;;8.93;4.83;;;;;;;;;;4942957;28;20443;-49
2022/04/04 08:26:49;;;;;;;7.43;4.83;;;;;;;;;;4943684;28;20453;-50
2022/04/04 08:29:15;;;;;;;4.57;4.17;;;;;;;;;;4941148;28;20452;-50
2022/04/04 08:31:41;;;;;;;5.90;5.23;;;;;;;;;;4942220;28;20470;-50
2022/04/04 08:34:07;;;;;;;6.20;5.40;;;;;;;;;;4948506;28;20478;-50
2022/04/04 08:36:33;;;;;;;8.23;5.07;;;;;;;;;;4945814;28;20446;-50
2022/04/04 08:38:59;;;;;;;7.30;5.40;;;;;;;;;;4946935;28;20474;-50
2022/04/04 08:41:25;;;;;;;6.00;5.40;;;;;;;;;;4952549;28;20487;-51
2022/04/04 08:43:51;;;;;;;6.43;5.83;;;;;;;;;;4947915;28;20474;-51
2022/04/04 08:46:17;;;;;;;10.77;5.80;;;;;;;;;;4939765;28;20439;-51
2022/04/04 08:48:43;;;;;;;6.50;4.90;;;;;;;;;;4945490;28;20549;-51
2022/04/04 08:51:09;;;;;;;10.17;5.30;;;;;;;;;;4942691;28;20551;-51
2022/04/04 08:53:35;;;;;;;6.73;5.10;;;;;;;;;;4945080;28;20779;-50
2022/04/04 08:56:02;;;;;;;8.63;6.23;;;;;;;;;;4946859;28;20461;-51
2022/04/04 08:58:28;;;;;;;6.33;4.50;;;;;;;;;;4949670;28;20435;-51
2022/04/04 09:00:54;;;;;;;5.83;4.83;;;;;;;;;;4947388;28;20450;-50
2022/04/04 09:03:21;;;;;;;6.27;4.73;;;;;;;;;;4949246;28;20449;-50
2022/04/04 09:05:50;;;;;;;7.33;4.00;;;;;;;;;;4948458;28;20502;-50
2022/04/04 09:08:18;;;;;;;4.93;4.20;;;;;;;;;;4947155;28;20548;-50
2022/04/04 09:10:44;;;;;;;5.40;4.70;;;;;;;;;;4952144;28;20465;-51
2022/04/04 09:13:15;;;;;;;8.70;4.87;;;;;;;;;;4947773;28;21036;-51
2022/04/04 09:15:50;;;;;;;5.00;4.50;;;;;;;;;;4946222;28;20447;-51
2022/04/04 09:18:16;;;;;;;10.17;4.83;;;;;;;;;;4949173;28;20454;-50
2022/04/04 09:20:51;;;;;;;5.60;5.00;;;;;;;;;;4952488;28;20525;-50
2022/04/04 09:23:17;;;;;;;7.00;4.77;;;;;;;;;;4949142;28;20435;-50
2022/04/04 09:25:43;;;;;;;7.03;5.53;;;;;;;;;;4951563;28;20435;-50
2022/04/04 09:28:16;;;;;;;5.63;4.40;;;;;;;;;;4959929;28;20938;-50
2022/04/04 09:30:42;;;;;;;5.03;4.20;;;;;;;;;;4947757;28;20471;-50
2022/04/04 09:33:12;;;;;;;6.17;3.83;;;;;;;;;;4949003;28;20423;-50
2022/04/04 09:35:45;;;;;;;5.10;4.60;;;;;;;;;;4946713;28;20451;-50
2022/04/04 09:38:14;;;;;;;5.83;4.40;;;;;;;;;;4940637;28;20432;-50
2022/04/04 09:40:40;;;;;;;4.97;4.47;;;;;;;;;;4947079;28;20462;-50
2022/04/04 09:43:06;;;;;;;6.77;4.40;;;;;;;;;;4980544;28;20604;-50
2022/04/04 09:45:32;;;;;;;6.50;5.33;;;;;;;;;;4945716;28;20522;-51
2022/04/04 09:47:59;;;;;;;4.97;4.57;;;;;;;;;;4948557;28;20482;-53
2022/04/04 09:50:44;;;;;;;8.40;4.60;;;;;;;;;;4950753;28;20463;-50
2022/04/04 09:53:17;;;;;;;5.10;4.60;;;;;;;;;;4946221;28;20953;-49
2022/04/04 09:55:44;;;;;;;7.97;5.40;;;;;;;;;;4947805;28;20518;-50
2022/04/04 09:58:12;;;;;;;4.00;3.60;;;;;;;;;;4942571;28;20439;-50
2022/04/04 10:00:38;;;;;;;6.67;5.30;;;;;;;;;;4950615;28;20558;-50
2022/04/04 10:03:07;;;;;;;8.07;5.13;;;;;;;;;;4946570;28;20789;-50
2022/04/04 10:05:33;;;;;;;5.57;4.40;;;;;;;;;;4946695;28;20432;-50
2022/04/04 10:07:59;;;;;;;6.40;5.20;;;;;;;;;;4957618;28;21046;-50
2022/04/04 10:10:27;;;;;;;5.53;4.83;;;;;;;;;;4945373;28;20456;-50
2022/04/04 10:12:54;;;;;;;5.43;4.90;;;;;;;;;;4948824;28;20446;-50
2022/04/04 10:15:20;;;;;;;5.20;4.70;;;;;;;;;;4942910;28;20818;-51
2022/04/04 10:17:46;;;;;;;5.90;5.00;;;;;;;;;;4949789;28;20450;-51
2022/04/04 10:20:12;;;;;;;6.17;5.40;;;;;;;;;;4945846;28;20435;-50
2022/04/04 10:22:38;;;;;;;6.53;5.57;;;;;;;;;;4942416;28;20444;-51
2022/04/04 10:25:07;;;;;;;5.50;5.00;;;;;;;;;;4942915;28;20459;-49
2022/04/04 10:27:34;;;;;;;7.07;4.63;;;;;;;;;;4944711;28;21078;-55
2022/04/04 10:30:03;;;;;;;7.30;5.80;;;;;;;;;;4945732;28;20575;-51
2022/04/04 10:32:30;;;;;;;7.27;5.50;;;;;;;;;;4937586;28;20541;-49
2022/04/04 10:34:56;;;;;;;9.93;6.20;;;;;;;;;;4947485;28;20443;-51
2022/04/04 10:37:26;;;;;;;6.20;5.37;;;;;;;;;;4949460;28;20442;-51
2022/04/04 10:39:52;;;;;;;6.50;4.73;;;;;;;;;;4949717;28;20435;-51
2022/04/04 10:42:24;;;;;;;4.20;3.60;;;;;;;;;;4947504;28;20506;-51
2022/04/04 10:44:56;;;;;;;5.37;4.33;;;;;;;;;;4949201;28;20461;-51
2022/04/04 10:47:22;;;;;;;7.60;4.67;;;;;;;;;;4945816;28;20516;-50
2022/04/04 10:49:48;;;;;;;5.90;3.63;;;;;;;;;;4951069;28;20435;-50
2022/04/04 10:52:16;;;;;;;4.17;3.70;;;;;;;;;;4947727;28;20505;-50
2022/04/04 10:54:42;;;;;;;7.73;4.53;;;;;;;;;;4951026;28;20442;-51
2022/04/04 10:57:17;;;;;;;4.73;4.27;;;;;;;;;;4946769;28;20445;-51
2022/04/04 10:59:47;;;;;;;4.77;4.37;;;;;;;;;;4954627;28;20215;-49
2022/04/04 11:02:14;;;;;;;5.90;4.20;;;;;;;;;;4940768;28;20979;-49
2022/04/04 11:07:38;;;;;;;4.67;4.10;;;;;;;;;;4950052;28;20447;-50
2022/04/04 11:07:39;;;;;;;4.90;3.30;;;;;;;;;;4951242;28;21008;-50
2022/04/04 11:10:08;;;;;;;7.40;4.23;;;;;;;;;;4947400;28;20521;-51
2022/04/04 11:12:54;;;;;;;5.83;4.27;;;;;;;;;;4945887;28;20440;-50
2022/04/04 11:15:20;;;;;;;6.30;4.43;;;;;;;;;;4975730;28;20478;-50
2022/04/04 11:17:55;;;;;;;12.00;4.20;;;;;;;;;;4951789;28;20485;-50
2022/04/04 11:20:21;;;;;;;5.20;4.13;;;;;;;;;;4948224;28;20868;-51
2022/04/04 11:22:51;;;;;;;5.37;4.00;;;;;;;;;;4948584;28;20443;-52
2022/04/04 11:25:19;;;;;;;4.93;4.43;;;;;;;;;;4943489;28;20444;-51
2022/04/04 11:27:48;;;;;;;5.50;3.60;;;;;;;;;;4942283;28;20479;-54
2022/04/04 11:30:16;;;;;;;4.40;4.00;;;;;;;;;;4934324;28;20509;-50
2022/04/04 11:32:42;;;;;;;12.60;4.60;;;;;;;;;;4937520;28;20611;-51
2022/04/04 11:35:09;;;;;;;4.43;3.93;;;;;;;;;;4947231;28;20469;-51
2022/04/04 11:37:51;;;;;;;4.70;3.80;;;;;;;;;;4944578;28;21195;-50
2022/04/04 11:40:23;;;;;;;4.47;4.07;;;;;;;;;;4943887;28;20575;-50
2022/04/04 11:42:51;;;;;;;4.10;3.67;;;;;;;;;;4941005;28;20439;-50
2022/04/04 11:45:18;;;;;;;4.93;4.20;;;;;;;;;;4941279;28;20812;-51
2022/04/04 11:47:50;;;;;;;5.00;4.10;;;;;;;;;;4947945;28;20482;-50
2022/04/04 11:50:16;;;;;;;4.90;4.30;;;;;;;;;;4975568;28;21018;-50
2022/04/04 11:52:46;;;;;;;7.93;4.93;;;;;;;;;;4939919;28;20446;-51
2022/04/04 11:55:16;;;;;;;5.57;4.00;;;;;;;;;;4942627;28;20435;-51
2022/04/04 11:57:46;;;;;;;5.43;4.20;;;;;;;;;;4946445;28;20537;-50
2022/04/04 12:00:12;;;;;;;6.00;4.27;;;;;;;;;;4939716;28;20463;-50
2022/04/04 12:02:38;;;;;;;9.97;4.23;;;;;;;;;;4942503;28;20469;-51
2022/04/04 12:05:06;;;;;;;4.43;3.87;;;;;;;;;;4956453;28;20917;-50
2022/04/04 12:07:33;;;;;;;4.47;4.07;;;;;;;;;;4942310;28;21159;-50
2022/04/04 12:10:01;;;;;;;5.00;4.50;;;;;;;;;;4946763;28;20565;-50
2022/04/04 12:12:33;;;;;;;4.50;4.00;;;;;;;;;;4940907;28;20555;-50
2022/04/04 12:14:59;;;;;;;7.10;4.10;;;;;;;;;;4941968;28;20451;-50
2022/04/04 12:17:25;;;;;;;5.73;4.57;;;;;;;;;;4935986;28;20428;-50
2022/04/04 12:19:52;;;;;;;4.73;4.33;;;;;;;;;;4944041;28;20518;-50
2022/04/04 12:25:03;;;;;;;5.83;4.13;;;;;;;;;;4944974;28;20878;-57
2022/04/04 12:27:29;;;;;;;4.73;4.33;;;;;;;;;;4940675;28;20494;-51
2022/04/04 12:30:01;;;;;;;5.63;4.87;;;;;;;;;;4954995;28;20467;-50
2022/04/04 12:32:27;;;;;;;5.00;4.10;;;;;;;;;;4939999;28;20670;-50
2022/04/04 12:34:54;;;;;;;5.10;4.60;;;;;;;;;;4937734;28;20769;-51
2022/04/04 12:37:20;;;;;;;5.07;4.57;;;;;;;;;;4935507;28;20490;-52
2022/04/04 12:39:50;;;;;;;6.00;5.17;;;;;;;;;;4946563;28;20443;-53
2022/04/04 12:42:16;;;;;;;7.10;4.00;;;;;;;;;;4935355;28;20488;-51
2022/04/04 12:44:42;;;;;;;8.13;4.77;;;;;;;;;;4942301;28;20678;-51
2022/04/04 12:47:09;;;;;;;4.63;4.23;;;;;;;;;;4931096;28;21509;-51
2022/04/04 12:49:35;;;;;;;5.00;4.43;;;;;;;;;;4942489;28;20454;-49
2022/04/04 12:52:05;;;;;;;7.93;5.00;;;;;;;;;;4944334;28;20439;-51
2022/04/04 12:54:47;;;;;;;5.10;4.70;;;;;;;;;;4945484;28;20583;-50
2022/04/04 12:57:13;;;;;;;5.27;4.60;;;;;;;;;;4928692;28;21226;-51
2022/04/04 12:59:56;;;;;;;5.27;4.57;;;;;;;;;;4933751;28;20584;-52
2022/04/04 13:02:29;;;;;;;5.53;4.30;;;;;;;;;;4931574;28;20495;-52
2022/04/04 13:05:11;;;;;;;7.60;5.53;;;;;;;;;;4941509;28;20442;-50
2022/04/04 13:07:41;;;;;;;5.67;4.70;;;;;;;;;;4937563;28;20495;-52
2022/04/04 13:10:11;;;;;;;4.90;4.40;;;;;;;;;;4943067;28;20446;-52
2022/04/04 13:12:41;;;;;;;5.13;4.63;;;;;;;;;;4946355;28;20439;-51
2022/04/04 13:15:07;;;;;;;4.83;4.27;;;;;;;;;;4937094;28;20435;-50
2022/04/04 13:17:35;;;;;;;5.43;4.23;;;;;;;;;;4937381;28;20453;-51
2022/04/04 13:20:01;;;;;;;5.67;4.50;;;;;;;;;;4936652;28;20447;-51
2022/04/04 13:22:26;;;;;;;5.03;4.47;;;;;;;;;;4942736;28;20439;-49
2022/04/04 13:24:52;;;;;;;5.60;5.07;;;;;;;;;;4939465;28;20660;-49
2022/04/04 13:27:23;;;;;;;6.70;5.50;;;;;;;;;;4929977;28;20471;-50
2022/04/04 13:29:49;;;;;;;5.83;5.17;;;;;;;;;;4938434;28;20451;-50
2022/04/04 13:32:15;;;;;;;6.60;5.00;;;;;;;;;;4940853;28;20446;-49
2022/04/04 13:34:42;;;;;;;7.67;5.83;;;;;;;;;;4938954;28;20789;-50
2022/04/04 13:37:08;;;;;;;5.00;4.50;;;;;;;;;;4928878;28;20432;-50
2022/04/04 13:39:35;;;;;;;6.10;5.60;;;;;;;;;;4931400;28;20446;-51
2022/04/04 13:42:01;;;;;;;5.90;5.30;;;;;;;;;;4940085;28;20660;-49
2022/04/04 13:44:27;;;;;;;6.00;5.20;;;;;;;;;;4945522;28;20526;-50
2022/04/04 13:46:53;;;;;;;5.60;4.70;;;;;;;;;;4941007;28;20437;-50
2022/04/04 13:49:19;;;;;;;5.03;4.20;;;;;;;;;;4941426;28;20451;-50
2022/04/04 13:51:45;;;;;;;6.33;4.90;;;;;;;;;;4941321;28;20766;-51
2022/04/04 13:54:11;;;;;;;7.57;4.73;;;;;;;;;;4936304;28;20448;-51
2022/04/04 13:56:37;;;;;;;5.03;4.53;;;;;;;;;;4933717;28;20494;-50
2022/04/04 13:59:04;;;;;;;4.70;4.30;;;;;;;;;;4944895;28;20446;-51
2022/04/04 14:01:30;;;;;;;6.20;4.40;;;;;;;;;;4936810;28;20447;-50
2022/04/04 14:03:59;;;;;;;9.07;5.40;;;;;;;;;;4938439;28;20450;-50
2022/04/04 14:06:25;;;;;;;4.13;3.73;;;;;;;;;;4949978;28;20441;-50
2022/04/04 14:08:51;;;;;;;6.37;5.30;;;;;;;;;;4938381;28;20482;-50
2022/04/04 14:11:17;;;;;;;5.77;5.20;;;;;;;;;;4941821;28;20439;-49
2022/04/04 14:13:47;;;;;;;6.40;4.30;;;;;;;;;;4945467;28;21761;-50
2022/04/04 14:16:13;;;;;;;6.13;4.60;;;;;;;;;;4945719;28;20439;-49
2022/04/04 14:18:39;;;;;;;5.60;5.00;;;;;;;;;;4948591;28;20451;-50
2022/04/04 14:21:06;;;;;;;8.90;4.80;;;;;;;;;;4947989;28;20447;-50
2022/04/04 14:23:34;;;;;;;5.30;4.80;;;;;;;;;;4951149;28;20870;-51
2022/04/04 14:26:00;;;;;;;6.70;4.90;;;;;;;;;;4948739;28;20431;-51
2022/04/04 14:28:29;;;;;;;4.67;4.20;;;;;;;;;;4947406;28;20493;-50
2022/04/04 14:30:56;;;;;;;5.80;4.20;;;;;;;;;;4944858;28;20199;-51
2022/04/04 14:33:26;;;;;;;6.53;4.43;;;;;;;;;;4942303;28;20969;-50
2022/04/04 14:35:52;;;;;;;5.03;4.53;;;;;;;;;;4948846;28;20454;-51
2022/04/04 14:38:18;;;;;;;5.33;4.23;;;;;;;;;;4944645;28;20439;-51
2022/04/04 14:40:44;;;;;;;9.87;5.73;;;;;;;;;;4945711;28;20505;-51
2022/04/04 14:43:10;;;;;;;6.47;5.00;;;;;;;;;;4940537;28;20453;-51
2022/04/04 14:45:36;;;;;;;6.83;5.57;;;;;;;;;;4943522;28;20443;-52
2022/04/04 14:48:06;;;;;;;6.37;4.87;;;;;;;;;;4945138;28;20591;-51
2022/04/04 14:50:32;;;;;;;5.30;4.57;;;;;;;;;;4939616;28;20442;-50